Time;durP1;ratioP1;P1;durP2;ratioP2;P2;SDS_P1;SDS_P2;PMS_P1;PMS_P2;Temp;Humidity;BMP_temperature;BMP_pressure;BME280_temperature;BME280_humidity;BME280_pressure;Samples;Min_cycle;Max_cycle;Signal;HPM_P1;HPM_P2
2023/12/01 00:03:09;;;;;;;4.07;2.30;;;;;;;22.30;30.80;100243.00;16109790;19;130973;-52
2023/12/01 00:08:31;;;;;;;3.33;2.55;;;;;;;22.29;30.70;100258.06;16108851;19;131532;-53
2023/12/01 00:13:53;;;;;;;3.15;2.65;;;;;;;22.17;30.77;100250.03;16108826;19;130403;-50
2023/12/01 00:19:15;;;;;;;3.83;2.85;;;;;;;21.99;30.88;100248.72;16108687;19;131027;-49
2023/12/01 00:24:37;;;;;;;3.58;2.50;;;;;;;21.76;31.24;100248.28;16113426;19;133820;-50
2023/12/01 00:29:59;;;;;;;4.10;2.70;;;;;;;21.58;31.16;100260.84;16108264;19;129513;-51
2023/12/01 00:35:21;;;;;;;5.63;2.90;;;;;;;21.41;31.79;100258.38;16102811;19;131269;-51
2023/12/01 00:40:43;;;;;;;3.22;2.50;;;;;;;21.22;32.09;100269.25;16115631;19;131202;-51
2023/12/01 00:46:05;;;;;;;3.10;2.47;;;;;;;21.02;31.81;100275.66;16121111;19;131566;-50
2023/12/01 00:51:27;;;;;;;4.00;2.65;;;;;;;20.84;32.29;100269.53;16122763;19;133883;-53
2023/12/01 00:56:49;;;;;;;2.67;2.33;;;;;;;20.69;32.72;100267.56;16118655;19;129432;-50
2023/12/01 01:02:11;;;;;;;4.05;2.10;;;;;;;20.57;32.84;100275.31;16119416;19;130144;-53
2023/12/01 01:07:33;;;;;;;3.53;2.17;;;;;;;20.45;32.97;100278.34;16119449;19;130134;-52
2023/12/01 01:12:55;;;;;;;2.50;2.28;;;;;;;20.35;32.80;100279.16;16119443;19;130853;-52
2023/12/01 01:18:17;;;;;;;3.03;2.03;;;;;;;20.26;33.00;100301.06;16121295;19;132445;-52
2023/12/01 01:23:40;;;;;;;2.58;2.30;;;;;;;20.16;33.09;100298.28;16117631;19;130752;-54
2023/12/01 01:29:02;;;;;;;4.38;2.63;;;;;;;20.07;33.51;100305.44;16119828;19;129751;-52
2023/12/01 01:34:24;;;;;;;2.58;2.30;;;;;;;19.97;33.52;100295.94;16117917;19;129794;-53
2023/12/01 01:39:46;;;;;;;3.72;2.60;;;;;;;19.89;33.62;100304.78;16121119;19;130040;-54
2023/12/01 01:45:10;;;;;;;5.63;2.70;;;;;;;19.82;33.24;100299.47;16118564;19;129623;-56
2023/12/01 01:50:32;;;;;;;4.57;2.92;;;;;;;19.76;33.20;100294.16;16116516;19;131308;-54
2023/12/01 01:55:58;;;;;;;3.53;2.55;;;;;;;19.68;33.48;100293.59;16117189;19;130384;-54
2023/12/01 02:01:20;;;;;;;4.18;2.50;;;;;;;19.63;33.50;100307.41;16118383;19;131048;-48
2023/12/01 02:06:42;;;;;;;3.08;2.60;;;;;;;19.57;33.75;100304.88;16113496;19;130172;-52
2023/12/01 02:12:04;;;;;;;3.95;2.92;;;;;;;19.52;33.76;100308.47;16118007;19;129840;-52
2023/12/01 02:17:26;;;;;;;3.70;2.47;;;;;;;19.47;33.58;100308.41;16112762;19;130095;-50
2023/12/01 02:22:49;;;;;;;3.05;2.50;;;;;;;19.41;33.68;100310.31;16113359;19;130456;-51
2023/12/01 02:28:11;;;;;;;3.00;2.40;;;;;;;19.37;33.82;100314.75;16112491;19;130427;-50
2023/12/01 02:33:34;;;;;;;2.75;2.55;;;;;;;19.31;34.08;100305.56;16114201;19;129321;-52
2023/12/01 02:38:56;;;;;;;2.60;2.38;;;;;;;19.25;33.85;100312.16;16106144;19;129830;-53
2023/12/01 02:44:17;;;;;;;3.78;3.03;;;;;;;19.22;33.99;100312.69;16117663;19;130577;-49
2023/12/01 02:49:39;;;;;;;3.70;3.10;;;;;;;19.17;33.74;100323.72;16111822;19;129509;-51
2023/12/01 02:55:01;;;;;;;3.20;2.67;;;;;;;19.12;34.13;100324.50;16115646;19;130597;-52
2023/12/01 03:00:24;;;;;;;3.10;2.67;;;;;;;19.06;34.19;100329.19;16110702;19;129698;-54
2023/12/01 03:05:46;;;;;;;3.30;2.67;;;;;;;19.04;33.98;100333.28;16111373;19;129644;-49
2023/12/01 03:11:08;;;;;;;4.28;3.67;;;;;;;19.02;33.81;100325.25;16110128;19;132413;-52
2023/12/01 03:16:30;;;;;;;4.07;3.60;;;;;;;18.97;33.75;100327.97;16110681;19;130616;-54
2023/12/01 03:21:52;;;;;;;4.40;4.00;;;;;;;18.93;33.74;100324.06;16111784;19;129796;-50
2023/12/01 03:27:15;;;;;;;3.90;3.42;;;;;;;18.88;33.77;100329.53;16111781;19;129574;-52
2023/12/01 03:32:36;;;;;;;4.38;3.70;;;;;;;18.84;34.00;100331.16;16108716;19;131753;-53
2023/12/01 03:37:58;;;;;;;4.78;3.60;;;;;;;18.80;33.84;100335.56;16107741;19;130664;-51
2023/12/01 03:43:20;;;;;;;4.10;3.05;;;;;;;18.75;33.57;100348.28;16110465;19;129579;-54
2023/12/01 03:48:43;;;;;;;3.72;3.28;;;;;;;18.73;33.57;100358.78;16109143;19;132231;-51
2023/12/01 03:54:05;;;;;;;4.88;4.00;;;;;;;18.71;33.89;100354.59;16108787;19;129577;-48
2023/12/01 03:59:27;;;;;;;4.85;3.65;;;;;;;18.67;33.67;100362.59;16106205;19;129526;-53
2023/12/01 04:04:50;;;;;;;4.20;3.80;;;;;;;18.63;33.89;100372.53;16106903;19;129401;-51
2023/12/01 04:10:12;;;;;;;5.05;3.78;;;;;;;18.58;33.85;100378.84;16103685;19;131114;-51
2023/12/01 04:15:36;;;;;;;4.22;3.83;;;;;;;18.55;33.67;100386.84;16102600;19;131118;-53
2023/12/01 04:20:58;;;;;;;4.70;3.85;;;;;;;18.52;33.34;100381.81;16109103;19;129789;-48
2023/12/01 04:26:20;;;;;;;5.22;4.32;;;;;;;18.49;33.52;100387.88;16102345;19;130193;-53
2023/12/01 04:31:42;;;;;;;4.35;3.72;;;;;;;18.44;33.47;100397.81;16110496;19;131077;-50
2023/12/01 04:37:16;;;;;;;7.43;3.95;;;;;;;18.40;33.49;100393.88;16107698;19;130931;-53
2023/12/01 04:42:39;;;;;;;4.85;3.90;;;;;;;18.37;33.48;100405.41;16104366;19;130010;-50
2023/12/01 04:48:01;;;;;;;4.30;3.63;;;;;;;18.34;33.82;100391.25;16101917;19;129885;-53
2023/12/01 04:53:23;;;;;;;5.13;4.10;;;;;;;18.29;33.48;100395.63;16104924;19;130242;-52
2023/12/01 04:58:45;;;;;;;5.07;4.13;;;;;;;18.24;33.57;100403.88;16101507;19;129295;-49
2023/12/01 05:04:08;;;;;;;4.50;3.90;;;;;;;18.21;33.72;100409.09;16104634;19;131228;-54
2023/12/01 05:09:30;;;;;;;4.32;3.58;;;;;;;18.17;33.70;100424.53;16100402;19;130475;-49
2023/12/01 05:14:53;;;;;;;3.97;3.58;;;;;;;18.14;33.65;100432.25;16101986;19;130272;-51
2023/12/01 05:20:17;;;;;;;5.95;3.85;;;;;;;18.12;33.65;100439.97;16098632;19;130653;-51
2023/12/01 05:25:41;;;;;;;6.18;4.65;;;;;;;18.10;34.00;100433.84;16108929;19;131085;-52
2023/12/01 05:31:05;;;;;;;4.75;4.10;;;;;;;18.09;33.51;100432.16;16116249;19;129947;-54
2023/12/01 05:36:27;;;;;;;5.25;4.35;;;;;;;18.07;33.87;100439.06;16119791;19;130284;-54
2023/12/01 05:41:49;;;;;;;5.35;4.38;;;;;;;18.03;33.60;100435.97;16113013;19;130629;-53
2023/12/01 05:47:11;;;;;;;8.10;4.35;;;;;;;18.00;33.86;100436.47;16113057;19;130655;-53
2023/12/01 05:52:33;;;;;;;5.78;4.13;;;;;;;17.98;34.01;100444.19;16111802;19;129534;-53
2023/12/01 05:58:09;;;;;;;5.15;4.32;;;;;;;17.95;33.56;100451.06;16109415;19;131305;-51
2023/12/01 06:03:31;;;;;;;6.90;4.32;;;;;;;17.91;33.93;100449.88;16109111;19;130912;-52
2023/12/01 06:08:53;;;;;;;5.65;4.32;;;;;;;17.90;33.60;100458.47;16109749;19;132931;-50
2023/12/01 06:14:15;;;;;;;7.57;4.90;;;;;;;17.90;33.50;100452.94;16115275;19;129968;-46
2023/12/01 06:19:37;;;;;;;6.60;4.93;;;;;;;17.90;33.60;100464.84;16113729;19;134170;-51
2023/12/01 06:24:59;;;;;;;7.68;5.53;;;;;;;17.82;33.62;100468.88;16112385;19;131567;-48
2023/12/01 06:30:23;;;;;;;5.90;4.80;;;;;;;17.84;33.69;100471.38;16114399;19;129702;-51
2023/12/01 06:35:45;;;;;;;10.85;5.95;;;;;;;17.85;33.61;100473.88;16109724;19;130584;-55
2023/12/01 06:41:07;;;;;;;10.25;5.70;;;;;;;17.87;33.31;100475.56;16112537;19;130002;-55
2023/12/01 06:46:29;;;;;;;10.82;6.53;;;;;;;17.84;33.35;100482.44;16112269;19;131449;-55
2023/12/01 06:51:51;;;;;;;10.18;5.78;;;;;;;17.83;33.64;100489.94;16113900;19;129997;-55
2023/12/01 06:57:13;;;;;;;8.65;6.35;;;;;;;17.79;33.25;100493.41;16107903;19;130154;-55
2023/12/01 07:02:37;;;;;;;8.65;5.50;;;;;;;17.92;33.31;100495.03;16108912;19;129373;-55
2023/12/01 07:08:01;;;;;;;8.05;5.50;;;;;;;18.37;32.93;100496.81;16112822;19;129558;-53
2023/12/01 07:13:23;;;;;;;7.13;4.95;;;;;;;18.99;32.45;100500.41;16113509;19;130654;-51
2023/12/01 07:18:45;;;;;;;7.97;5.47;;;;;;;19.53;31.65;100505.16;16109668;19;130345;-50
2023/12/01 07:24:08;;;;;;;9.23;5.35;;;;;;;19.88;31.37;100516.03;16109686;19;130151;-49
2023/12/01 07:29:30;;;;;;;11.70;5.88;;;;;;;20.04;30.96;100511.47;16109855;19;130621;-54
2023/12/01 07:34:52;;;;;;;10.23;5.85;;;;;;;20.13;31.18;100512.66;16108479;19;130542;-54
2023/12/01 07:40:19;;;;;;;8.40;6.50;;;;;;;20.11;30.57;100503.75;16110981;19;129556;-51
2023/12/01 07:45:41;;;;;;;11.48;7.63;;;;;;;20.02;30.74;100519.22;16105143;19;130122;-48
2023/12/01 07:51:04;;;;;;;11.98;8.05;;;;;;;19.88;30.95;100524.38;16105707;19;131549;-55
2023/12/01 07:56:26;;;;;;;15.63;9.75;;;;;;;19.71;30.18;100527.25;16108920;19;133403;-50
2023/12/01 08:01:48;;;;;;;16.80;8.48;;;;;;;19.55;30.58;100524.34;16110200;19;129572;-52
2023/12/01 08:07:11;;;;;;;14.55;9.80;;;;;;;19.46;30.57;100528.66;16104024;19;131064;-52
2023/12/01 08:12:35;;;;;;;14.30;9.40;;;;;;;19.41;30.63;100540.56;16108269;19;129659;-50
2023/12/01 08:17:58;;;;;;;14.02;9.30;;;;;;;19.48;30.31;100538.44;16105689;19;132661;-47
2023/12/01 08:23:21;;;;;;;13.73;9.73;;;;;;;19.60;30.35;100538.25;16107054;19;129590;-51
2023/12/01 08:28:43;;;;;;;13.38;9.57;;;;;;;19.68;30.36;100546.13;16106985;19;129991;-47
2023/12/01 08:34:08;;;;;;;14.70;9.07;;;;;;;19.79;30.37;100560.91;16106554;19;129552;-53
2023/12/01 08:39:44;;;;;;;13.13;8.52;;;;;;;19.90;30.28;100556.31;16104600;19;129711;-52
2023/12/01 08:45:07;;;;;;;16.38;9.45;;;;;;;19.98;30.06;100558.59;16105568;19;131734;-52
2023/12/01 08:50:29;;;;;;;11.10;7.93;;;;;;;20.06;29.86;100559.25;16104090;19;130624;-51
2023/12/01 08:55:51;;;;;;;14.75;8.48;;;;;;;20.12;30.17;100569.28;16104419;19;131970;-48
2023/12/01 09:01:13;;;;;;;11.52;8.35;;;;;;;20.17;30.17;100577.66;16110379;19;129516;-48
2023/12/01 09:06:36;;;;;;;13.38;8.38;;;;;;;20.23;29.90;100575.78;16121304;19;130174;-47
2023/12/01 09:11:58;;;;;;;17.00;8.35;;;;;;;20.28;29.76;100576.66;16122301;19;129820;-47
2023/12/01 09:17:21;;;;;;;12.55;8.32;;;;;;;20.34;30.06;100582.22;16118574;19;130221;-51
2023/12/01 09:22:44;;;;;;;10.10;7.82;;;;;;;20.36;29.92;100585.56;16120865;19;129425;-50
2023/12/01 09:28:06;;;;;;;14.43;8.00;;;;;;;20.36;29.67;100602.25;16116921;19;130546;-48
2023/12/01 09:33:28;;;;;;;14.35;7.88;;;;;;;20.35;30.01;100600.56;16114925;19;129324;-49
2023/12/01 09:38:50;;;;;;;11.40;8.02;;;;;;;20.34;30.15;100605.31;16119708;19;129537;-48
2023/12/01 09:44:12;;;;;;;17.65;8.65;;;;;;;20.33;30.01;100611.97;16116235;19;129526;-49
2023/12/01 09:49:35;;;;;;;11.88;8.00;;;;;;;20.34;30.15;100612.78;16118447;19;129711;-49
2023/12/01 09:54:57;;;;;;;9.77;7.88;;;;;;;20.33;29.94;100609.19;16118022;19;129787;-55
2023/12/01 10:00:30;;;;;;;9.40;7.20;;;;;;;20.33;30.16;100611.09;16114905;19;131279;-49
2023/12/01 10:05:53;;;;;;;9.95;7.28;;;;;;;20.31;30.18;100610.56;16113221;19;131204;-47
2023/12/01 10:11:20;;;;;;;10.05;7.32;;;;;;;20.23;30.08;100604.38;16114386;19;131546;-49
2023/12/01 10:16:43;;;;;;;15.10;7.28;;;;;;;20.11;30.18;100601.78;16116208;19;134593;-47
2023/12/01 10:22:06;;;;;;;9.07;7.40;;;;;;;19.99;30.58;100615.81;16115302;19;129964;-47
2023/12/01 10:27:29;;;;;;;9.35;7.07;;;;;;;19.84;30.37;100607.31;16114369;19;129669;-50
2023/12/01 10:32:51;;;;;;;11.13;7.57;;;;;;;19.73;30.67;100606.38;16114336;19;129719;-50
2023/12/01 10:38:13;;;;;;;9.52;7.35;;;;;;;19.65;30.98;100601.28;16114155;19;129829;-53
2023/12/01 10:43:35;;;;;;;9.40;7.32;;;;;;;19.57;30.53;100590.66;16116192;19;129607;-45
2023/12/01 10:48:59;;;;;;;10.15;7.75;;;;;;;19.49;30.93;100586.41;16111741;19;133299;-50
2023/12/01 10:54:23;;;;;;;9.18;7.30;;;;;;;19.47;30.99;100597.78;16109950;19;130724;-52
2023/12/01 10:59:52;;;;;;;10.75;7.00;;;;;;;19.57;30.75;100591.50;16114305;19;130000;-51
2023/12/01 11:05:18;;;;;;;8.27;6.32;;;;;;;19.76;30.64;100583.63;16109888;19;130279;-51
2023/12/01 11:11:01;;;;;;;8.48;6.45;;;;;;;19.96;30.28;100577.44;16108526;19;129831;-46
2023/12/01 11:16:24;;;;;;;8.55;6.60;;;;;;;20.13;30.10;100582.06;16110562;19;130454;-48
2023/12/01 11:21:54;;;;;;;7.97;6.15;;;;;;;20.31;29.98;100574.44;16109491;19;130792;-51
2023/12/01 11:27:16;;;;;;;8.07;5.70;;;;;;;20.41;30.17;100580.88;16112506;19;130010;-48
2023/12/01 11:32:40;;;;;;;7.80;5.53;;;;;;;20.53;30.07;100575.16;16106652;19;129932;-49
2023/12/01 11:38:04;;;;;;;6.73;5.20;;;;;;;20.63;29.75;100581.88;16104915;19;129595;-54
2023/12/01 11:43:27;;;;;;;8.68;5.80;;;;;;;20.67;29.59;100589.41;16112229;19;129937;-51
2023/12/01 11:48:52;;;;;;;9.27;5.90;;;;;;;20.64;29.68;100584.38;16111275;19;130495;-52
2023/12/01 11:54:14;;;;;;;6.70;5.30;;;;;;;20.56;29.78;100591.25;16111092;19;129675;-51
2023/12/01 11:59:37;;;;;;;7.60;5.70;;;;;;;20.44;29.84;100585.06;16110193;19;129608;-52
2023/12/01 12:05:01;;;;;;;7.28;5.63;;;;;;;20.33;30.24;100586.09;16107701;19;129748;-49
2023/12/01 12:10:24;;;;;;;7.97;6.27;;;;;;;20.20;30.14;100590.19;16107212;19;130677;-48
2023/12/01 12:15:46;;;;;;;8.45;6.50;;;;;;;20.10;30.17;100593.69;16108777;19;129605;-52
2023/12/01 12:21:08;;;;;;;8.68;6.35;;;;;;;19.97;30.17;100604.13;16104946;19;129495;-49
2023/12/01 12:26:31;;;;;;;7.82;6.00;;;;;;;19.85;30.12;100611.75;16098921;19;130652;-49
2023/12/01 12:31:53;;;;;;;7.43;5.82;;;;;;;19.74;30.55;100612.75;16102846;19;131845;-49
2023/12/01 12:37:15;;;;;;;8.82;5.85;;;;;;;19.64;30.18;100619.03;16097634;19;130868;-54
2023/12/01 12:42:41;;;;;;;7.97;5.85;;;;;;;19.58;30.04;100614.53;16104328;19;134613;-49
2023/12/01 12:48:09;;;;;;;6.93;5.25;;;;;;;19.53;30.48;100607.00;16103531;19;134408;-49
2023/12/01 12:53:32;;;;;;;10.35;6.18;;;;;;;19.45;30.55;100599.13;16099934;19;131010;-46
2023/12/01 12:58:57;;;;;;;9.52;5.60;;;;;;;19.36;30.46;100602.38;16105084;19;131401;-46
2023/12/01 13:04:20;;;;;;;12.38;5.68;;;;;;;19.38;30.72;100600.19;16105936;19;129845;-44
2023/12/01 13:09:42;;;;;;;10.85;5.47;;;;;;;19.65;30.43;100601.28;16101508;19;130487;-46
2023/12/01 13:15:05;;;;;;;5.07;3.67;;;;;;;20.05;30.15;100590.91;16105947;19;131374;-44
2023/12/01 13:20:27;;;;;;;7.00;4.50;;;;;;;20.38;29.86;100594.50;16103477;19;129301;-43
2023/12/01 13:25:48;;;;;;;9.68;4.53;;;;;;;20.57;29.34;100592.94;16104516;19;130030;-46
2023/12/01 13:31:11;;;;;;;11.73;4.90;;;;;;;20.60;29.46;100586.84;16099289;19;129583;-46
2023/12/01 13:36:33;;;;;;;14.77;4.82;;;;;;;20.53;29.16;100591.81;16097563;19;129901;-46
2023/12/01 13:41:55;;;;;;;8.52;4.50;;;;;;;20.44;29.55;100587.84;16091215;19;130389;-46
2023/12/01 13:47:19;;;;;;;6.45;4.07;;;;;;;20.35;29.86;100595.00;16102959;19;130540;-49
2023/12/01 13:52:42;;;;;;;7.65;4.05;;;;;;;20.25;29.51;100585.50;16113844;19;129951;-46
2023/12/01 13:58:04;;;;;;;6.28;4.03;;;;;;;20.17;29.98;100594.34;16112813;19;130649;-49
2023/12/01 14:03:26;;;;;;;7.30;4.95;;;;;;;20.14;29.76;100595.69;16115711;19;131146;-43
2023/12/01 14:08:53;;;;;;;8.48;3.90;;;;;;;20.23;29.82;100590.47;16113479;19;131021;-44
2023/12/01 14:14:14;;;;;;;5.47;3.63;;;;;;;20.38;29.50;100595.31;16113601;19;129604;-47
2023/12/01 14:19:37;;;;;;;4.70;3.70;;;;;;;20.55;29.26;100606.28;16116396;19;130342;-45
2023/12/01 14:24:59;;;;;;;5.97;3.63;;;;;;;20.69;29.64;100611.34;16114213;19;129947;-45
2023/12/01 14:30:21;;;;;;;7.13;3.65;;;;;;;20.80;29.25;100613.13;16113575;19;129664;-48
2023/12/01 14:35:43;;;;;;;4.72;3.50;;;;;;;20.89;29.36;100613.47;16117144;19;129690;-42
2023/12/01 14:41:07;;;;;;;6.97;3.28;;;;;;;20.99;29.16;100618.25;16112478;19;129659;-44
2023/12/01 14:46:29;;;;;;;6.32;3.20;;;;;;;21.06;29.02;100622.47;16107630;19;129604;-46
2023/12/01 14:51:51;;;;;;;5.03;3.47;;;;;;;21.08;28.90;100629.72;16102957;19;130938;-46
2023/12/01 14:57:13;;;;;;;7.38;3.30;;;;;;;21.06;28.79;100638.31;16111377;19;129815;-48
2023/12/01 15:02:35;;;;;;;7.20;3.53;;;;;;;21.03;28.76;100641.66;16113106;19;130976;-47
2023/12/01 15:07:57;;;;;;;5.88;2.80;;;;;;;21.01;28.46;100641.06;16113443;19;129925;-46
2023/12/01 15:13:19;;;;;;;7.47;3.25;;;;;;;20.99;28.64;100644.09;16109203;19;131033;-51
2023/12/01 15:18:41;;;;;;;11.30;2.67;;;;;;;21.13;28.39;100652.81;16113584;19;131168;-50
2023/12/01 15:24:04;;;;;;;11.70;3.30;;;;;;;21.15;28.48;100645.03;16108066;19;130576;-45
2023/12/01 15:29:26;;;;;;;8.25;2.90;;;;;;;21.05;28.50;100645.81;16098513;19;131714;-47
2023/12/01 15:34:48;;;;;;;11.95;2.63;;;;;;;20.93;28.40;100638.78;16105425;19;129775;-48
2023/12/01 15:40:13;;;;;;;9.32;3.22;;;;;;;20.78;28.48;100640.38;16107957;19;131524;-45
2023/12/01 15:45:35;;;;;;;7.03;2.57;;;;;;;20.66;28.74;100648.06;16108076;19;131463;-47
2023/12/01 15:50:57;;;;;;;16.83;6.07;;;;;;;20.47;28.45;100642.91;16106257;19;130573;-48
2023/12/01 15:56:19;;;;;;;15.30;9.00;;;;;;;20.16;27.33;100652.91;16103398;19;129534;-47
2023/12/01 16:01:41;;;;;;;19.45;8.45;;;;;;;19.94;28.96;100648.22;16108549;19;129769;-47
2023/12/01 16:07:03;;;;;;;15.98;8.02;;;;;;;19.77;29.62;100668.59;16104573;19;129758;-46
2023/12/01 16:12:26;;;;;;;13.02;7.07;;;;;;;19.51;29.28;100675.78;16104152;19;129383;-48
2023/12/01 16:17:48;;;;;;;17.00;6.57;;;;;;;19.40;29.42;100676.75;16105553;19;130725;-50
2023/12/01 16:23:11;;;;;;;12.20;5.38;;;;;;;19.35;28.89;100678.34;16100239;19;130911;-46
2023/12/01 16:28:34;;;;;;;11.32;4.38;;;;;;;19.44;29.39;100680.69;16103244;19;130713;-46
2023/12/01 16:33:56;;;;;;;9.80;4.53;;;;;;;19.53;29.08;100695.78;16105114;19;130389;-51
2023/12/01 16:39:17;;;;;;;8.02;3.85;;;;;;;19.60;29.39;100701.16;16093463;19;131999;-44
2023/12/01 16:44:40;;;;;;;8.77;3.90;;;;;;;19.73;29.34;100719.34;16107195;19;129721;-43
2023/12/01 16:50:02;;;;;;;5.10;3.67;;;;;;;19.82;28.99;100703.88;16108405;19;130279;-44
2023/12/01 16:55:25;;;;;;;9.55;3.78;;;;;;;19.90;28.63;100711.78;16103766;19;129466;-44
2023/12/01 17:00:47;;;;;;;8.55;3.80;;;;;;;19.99;28.49;100715.78;16103577;19;130875;-54
2023/12/01 17:06:09;;;;;;;10.65;3.55;;;;;;;20.05;28.30;100726.97;16092167;19;130687;-46
2023/12/01 17:11:31;;;;;;;14.50;4.78;;;;;;;20.07;28.10;100725.59;16108646;19;129611;-46
2023/12/01 17:16:53;;;;;;;21.00;6.05;;;;;;;20.08;28.64;100723.66;16105492;19;130912;-49
2023/12/01 17:22:15;;;;;;;18.10;6.28;;;;;;;20.04;28.71;100728.88;16115678;19;131795;-48
2023/12/01 17:27:40;;;;;;;15.05;6.00;;;;;;;20.02;28.93;100736.63;16122801;19;133435;-44
2023/12/01 17:33:03;;;;;;;14.13;5.05;;;;;;;20.11;28.85;100739.78;16122340;19;133481;-44
2023/12/01 17:38:25;;;;;;;16.85;5.25;;;;;;;20.23;29.06;100731.31;16121808;19;130135;-43
2023/12/01 17:43:47;;;;;;;12.73;5.07;;;;;;;20.35;29.32;100737.56;16117116;19;129797;-49
2023/12/01 17:49:09;;;;;;;14.30;4.60;;;;;;;20.45;29.50;100734.88;16113201;19;129873;-43
2023/12/01 17:54:31;;;;;;;11.90;4.70;;;;;;;20.52;29.09;100739.34;16123546;19;130657;-44
2023/12/01 17:59:53;;;;;;;14.85;4.10;;;;;;;20.54;29.29;100754.69;16130212;19;129757;-46
2023/12/01 18:05:16;;;;;;;11.30;5.03;;;;;;;20.55;28.96;100756.38;16138847;19;131342;-50
2023/12/01 18:10:38;;;;;;;15.95;4.18;;;;;;;20.51;29.26;100759.91;16128490;19;130046;-48
2023/12/01 18:16:00;;;;;;;9.45;4.63;;;;;;;20.44;29.15;100765.69;16114361;19;131395;-48
2023/12/01 18:21:22;;;;;;;8.80;3.65;;;;;;;20.38;28.73;100772.31;16122227;19;129793;-44
2023/12/01 18:26:44;;;;;;;11.05;4.15;;;;;;;20.28;29.22;100773.03;16111197;19;132040;-47
2023/12/01 18:32:06;;;;;;;9.25;4.00;;;;;;;20.16;29.38;100777.88;16116925;19;129828;-47
2023/12/01 18:37:28;;;;;;;9.48;3.85;;;;;;;20.04;29.59;100783.59;16112308;19;132001;-47
2023/12/01 18:42:50;;;;;;;16.02;3.88;;;;;;;20.02;29.51;100781.06;16115663;19;131049;-45
2023/12/01 18:48:12;;;;;;;13.30;3.30;;;;;;;20.13;29.56;100782.84;16110817;19;132269;-46
2023/12/01 18:53:34;;;;;;;11.48;3.58;;;;;;;20.26;29.96;100787.19;16104554;19;131450;-46
2023/12/01 18:58:57;;;;;;;7.47;3.40;;;;;;;20.38;29.55;100795.34;16115066;19;129954;-43
2023/12/01 19:04:18;;;;;;;11.02;3.53;;;;;;;20.48;29.68;100811.31;16106309;19;129610;-46
2023/12/01 19:09:41;;;;;;;12.40;3.00;;;;;;;20.55;29.85;100808.31;16115820;19;130690;-43
2023/12/01 19:15:03;;;;;;;12.90;4.18;;;;;;;20.59;29.48;100815.88;16110896;19;135139;-45
2023/12/01 19:20:25;;;;;;;14.68;3.80;;;;;;;20.62;29.67;100813.66;16112053;19;129931;-44
2023/12/01 19:25:48;;;;;;;10.07;3.35;;;;;;;20.59;29.91;100813.09;16109028;19;129951;-47
2023/12/01 19:31:12;;;;;;;8.60;2.95;;;;;;;20.51;29.88;100816.34;16112282;19;130771;-47
2023/12/01 19:36:37;;;;;;;8.77;3.10;;;;;;;20.41;29.92;100807.91;16109207;19;129561;-43
2023/12/01 19:41:59;;;;;;;7.25;3.38;;;;;;;20.32;30.48;100817.78;16111574;19;130872;-44
2023/12/01 19:47:21;;;;;;;22.88;4.95;;;;;;;20.22;30.65;100813.78;16104615;19;129642;-44
2023/12/01 19:52:43;;;;;;;25.73;4.20;;;;;;;20.17;30.84;100821.22;16108321;19;129688;-47
2023/12/01 19:58:05;;;;;;;17.83;4.30;;;;;;;20.11;31.14;100820.34;16106026;19;131572;-44
2023/12/01 20:03:27;;;;;;;12.38;3.80;;;;;;;20.06;30.93;100814.72;16108127;19;129797;-47
2023/12/01 20:08:50;;;;;;;12.38;3.47;;;;;;;20.01;30.90;100822.97;16102673;19;131140;-45
2023/12/01 20:14:12;;;;;;;8.07;3.25;;;;;;;19.96;30.78;100837.63;16105702;19;130298;-49
2023/12/01 20:19:38;;;;;;;23.98;4.38;;;;;;;19.91;31.08;100840.31;16097785;19;129808;-45
2023/12/01 20:25:00;;;;;;;18.92;4.50;;;;;;;19.88;31.29;100835.28;16108961;19;129909;-45
2023/12/01 20:30:22;;;;;;;18.33;4.05;;;;;;;19.79;31.34;100838.50;16102975;19;130825;-43
2023/12/01 20:35:44;;;;;;;11.68;3.80;;;;;;;19.86;31.20;100845.81;16105418;19;130063;-46
2023/12/01 20:41:07;;;;;;;11.73;3.78;;;;;;;19.98;31.38;100844.59;16098069;19;130691;-46
2023/12/01 20:46:29;;;;;;;12.32;3.53;;;;;;;20.15;31.21;100852.06;16103886;19;131347;-48
2023/12/01 20:51:51;;;;;;;15.15;3.65;;;;;;;20.36;30.74;100850.38;16105289;19;129430;-43
2023/12/01 20:57:13;;;;;;;17.23;3.35;;;;;;;20.52;30.61;100856.06;16100267;19;130584;-46
2023/12/01 21:02:35;;;;;;;15.13;3.78;;;;;;;20.60;30.48;100859.25;16122535;19;129701;-45
2023/12/01 21:07:56;;;;;;;10.80;3.25;;;;;;;20.63;30.43;100857.03;16115408;19;129570;-48
2023/12/01 21:13:18;;;;;;;11.55;3.03;;;;;;;20.60;30.76;100864.78;16120572;19;130803;-47
2023/12/01 21:18:40;;;;;;;14.27;3.38;;;;;;;20.52;30.71;100856.94;16115006;19;133195;-46
2023/12/01 21:24:03;;;;;;;11.52;3.72;;;;;;;20.44;30.96;100857.38;16116252;19;133916;-49
2023/12/01 21:29:25;;;;;;;13.20;3.30;;;;;;;20.38;30.81;100872.31;16113978;19;130412;-46
2023/12/01 21:34:47;;;;;;;13.57;3.22;;;;;;;20.31;30.92;100866.97;16112998;19;131293;-44
2023/12/01 21:40:09;;;;;;;19.75;3.80;;;;;;;20.16;30.77;100864.00;16115225;19;129837;-46
2023/12/01 21:45:31;;;;;;;11.38;3.05;;;;;;;20.01;31.03;100856.31;16108469;19;130041;-49
2023/12/01 21:50:53;;;;;;;5.65;3.08;;;;;;;19.90;31.13;100860.84;16113578;19;129735;-47
2023/12/01 21:56:15;;;;;;;39.97;5.07;;;;;;;19.81;31.18;100871.56;16116952;19;129416;-49
2023/12/01 22:01:38;;;;;;;13.95;3.13;;;;;;;19.69;31.03;100866.94;16112546;19;133555;-49
2023/12/01 22:07:00;;;;;;;7.72;2.85;;;;;;;19.59;31.56;100869.56;16114438;19;129721;-48
2023/12/01 22:12:22;;;;;;;10.38;3.22;;;;;;;19.50;31.30;100874.72;16109846;19;130603;-46
2023/12/01 22:17:45;;;;;;;8.10;3.33;;;;;;;19.43;31.58;100882.38;16107731;19;129608;-47
2023/12/01 22:23:07;;;;;;;9.98;3.35;;;;;;;19.35;31.65;100882.81;16107078;19;129765;-46
2023/12/01 22:28:29;;;;;;;11.45;3.13;;;;;;;19.27;31.38;100881.28;16114115;19;131411;-45
2023/12/01 22:33:51;;;;;;;6.68;2.78;;;;;;;19.19;31.52;100890.00;16113234;19;131021;-46
2023/12/01 22:39:13;;;;;;;8.25;3.22;;;;;;;19.12;31.61;100901.25;16110019;19;129500;-48
2023/12/01 22:44:36;;;;;;;7.70;2.63;;;;;;;19.05;31.47;100912.50;16099437;19;131024;-45
2023/12/01 22:49:58;;;;;;;7.30;3.20;;;;;;;18.99;31.81;100896.84;16107960;19;131678;-46
2023/12/01 22:55:20;;;;;;;9.77;3.08;;;;;;;18.93;31.44;100897.88;16106193;19;130970;-43
2023/12/01 23:00:42;;;;;;;5.68;3.05;;;;;;;18.88;31.40;100911.63;16112952;19;130048;-48
2023/12/01 23:06:04;;;;;;;7.60;3.33;;;;;;;18.83;31.49;100917.91;16109240;19;131403;-45
2023/12/01 23:11:27;;;;;;;6.93;3.20;;;;;;;18.79;31.76;100913.09;16115720;19;130315;-49
2023/12/01 23:16:49;;;;;;;4.95;3.17;;;;;;;18.72;31.60;100908.53;16111781;19;130084;-49
2023/12/01 23:22:10;;;;;;;5.75;3.35;;;;;;;18.68;31.35;100909.28;16110108;19;131306;-45
2023/12/01 23:27:32;;;;;;;6.72;3.40;;;;;;;18.63;31.27;100915.56;16107566;19;131155;-47
2023/12/01 23:32:56;;;;;;;6.13;3.10;;;;;;;18.57;31.27;100917.41;16112350;19;130134;-48
2023/12/01 23:38:19;;;;;;;8.07;3.38;;;;;;;18.54;31.74;100908.75;16106593;19;131867;-45
2023/12/01 23:43:41;;;;;;;6.80;3.42;;;;;;;18.49;31.58;100917.81;16110775;19;130819;-44
2023/12/01 23:49:02;;;;;;;7.22;3.40;;;;;;;18.44;31.28;100918.53;16108249;19;133572;-46
2023/12/01 23:54:25;;;;;;;5.45;3.17;;;;;;;18.41;31.23;100921.78;16102456;19;129929;-47
2023/12/01 23:59:47;;;;;;;6.35;3.33;;;;;;;18.37;31.53;100922.50;16108915;19;129230;-46
